Muzaffargarh Weather



Muzaffargarh's Current Weather

Temprature 26o smoke

smoke

Rain: 0 %

Min Temprature26o
Max Temprature26o
Humidity57
Wind Speed34 m/h
Sun Rise05:42:22
Sun Set18:45:22
Current Time: 21-Apr-2019 05:13:21
Lat/Lon: 30.08, 71.19




Muzaffargarh's Geo Location



Muzaffargarh's Weather Forecast

Time Overall Temp Min Temp Max Temp Humidity Wind Speed Rain
21-Apr-2019 (Sun)
08:00:00 clear sky 28.170 28.170 30.009 26 4.03 m/h 0 %
11:00:00 clear sky 34.730 34.730 35.950 18 4.49 m/h 0 %
14:00:00 clear sky 38.240 38.240 38.850 13 3.53 m/h 0 %
17:00:00 clear sky 38.950 38.950 38.950 12 1.41 m/h 0 %
20:00:00 clear sky 34.750 34.750 34.750 15 1.98 m/h 0 %
23:00:00 clear sky 32.610 32.610 32.610 17 2.03 m/h 0 %
22-Apr-2019 (Mon)
02:00:00 clear sky 30.470 30.470 30.470 19 1.37 m/h 0 %
05:00:00 clear sky 28.574 28.574 28.574 22 2.13 m/h 0 %
08:00:00 clear sky 31.856 31.856 31.856 22 3.55 m/h 0 %
11:00:00 clear sky 37.720 37.720 37.720 15 3.26 m/h 0 %
14:00:00 clear sky 41.315 41.315 41.315 11 1.34 m/h 0 %
17:00:00 clear sky 41.631 41.631 41.631 9 1.46 m/h 0 %
20:00:00 clear sky 37.050 37.050 37.050 13 2.16 m/h 0 %
23:00:00 clear sky 34.696 34.696 34.696 15 2.02 m/h 0 %
23-Apr-2019 (Tue)
02:00:00 clear sky 32.877 32.877 32.877 16 1.68 m/h 0 %
05:00:00 scattered clouds 30.736 30.736 30.736 17 0.14 m/h 0 %
08:00:00 broken clouds 33.337 33.337 33.337 19 4.18 m/h 0 %
11:00:00 scattered clouds 39.150 39.150 39.150 13 3.41 m/h 0 %
14:00:00 clear sky 42.750 42.750 42.750 10 4.16 m/h 0 %
17:00:00 clear sky 43.150 43.150 43.150 8 3.1 m/h 0 %
20:00:00 few clouds 38.028 38.028 38.028 11 3.31 m/h 0 %
23:00:00 broken clouds 37.150 37.150 37.150 9 5.14 m/h 0 %
24-Apr-2019 (Wed)
02:00:00 scattered clouds 34.482 34.482 34.482 11 5.92 m/h 0 %
05:00:00 few clouds 32.154 32.154 32.154 16 4.84 m/h 0 %
08:00:00 clear sky 34.850 34.850 34.850 19 2.84 m/h 0 %
11:00:00 clear sky 38.808 38.808 38.808 15 3.48 m/h 0 %
14:00:00 clear sky 41.450 41.450 41.450 12 4.01 m/h 0 %
17:00:00 clear sky 40.450 40.450 40.450 14 6.84 m/h 0 %
20:00:00 broken clouds 35.855 35.855 35.855 18 5.58 m/h 0 %
23:00:00 light rain 30.045 30.045 30.045 37 5.89 m/h 31 %
25-Apr-2019 (Thu)
02:00:00 light rain 27.950 27.950 27.950 46 4.6 m/h 13 %
05:00:00 light rain 26.502 26.502 26.502 53 4.1 m/h 206 %
08:00:00 scattered clouds 30.020 30.020 30.020 39 4.42 m/h 0 %
11:00:00 light rain 35.890 35.890 35.890 24 3.76 m/h 69 %
14:00:00 clear sky 38.850 38.850 38.850 19 1.32 m/h 0 %
17:00:00 clear sky 39.111 39.111 39.111 17 0.31 m/h 0 %
20:00:00 clear sky 35.525 35.525 35.525 21 1.23 m/h 0 %
23:00:00 clear sky 32.843 32.843 32.843 25 3.95 m/h 0 %
26-Apr-2019 (Fri)
02:00:00 clear sky 30.532 30.532 30.532 30 3.93 m/h 0 %
05:00:00 clear sky 28.886 28.886 28.886 34 3.21 m/h 0 %

Famous Cities (60)